sensor_id;sensor_type;location;lat;lon;timestamp;P1;durP1;ratioP1;P2;durP2;ratioP2
21274;SDS011;36472;52.170;20.884;2023-03-01T00:01:55;92.80;;;48.70;;
21274;SDS011;36472;52.170;20.884;2023-03-01T00:04:24;93.37;;;50.13;;
21274;SDS011;36472;52.170;20.884;2023-03-01T00:06:55;87.03;;;48.67;;
21274;SDS011;36472;52.170;20.884;2023-03-01T00:09:24;88.97;;;49.27;;
21274;SDS011;36472;52.170;20.884;2023-03-01T00:11:53;91.23;;;48.30;;
21274;SDS011;36472;52.170;20.884;2023-03-01T00:14:22;90.90;;;47.47;;
21274;SDS011;36472;52.170;20.884;2023-03-01T00:16:52;91.70;;;48.13;;
21274;SDS011;36472;52.170;20.884;2023-03-01T00:19:21;90.00;;;45.30;;
21274;SDS011;36472;52.170;20.884;2023-03-01T00:21:50;83.77;;;46.37;;
21274;SDS011;36472;52.170;20.884;2023-03-01T00:24:19;90.30;;;47.47;;
21274;SDS011;36472;52.170;20.884;2023-03-01T00:26:48;84.13;;;45.07;;
21274;SDS011;36472;52.170;20.884;2023-03-01T00:29:22;80.50;;;44.73;;
21274;SDS011;36472;52.170;20.884;2023-03-01T00:31:53;80.83;;;43.63;;
21274;SDS011;36472;52.170;20.884;2023-03-01T00:34:22;82.07;;;42.17;;
21274;SDS011;36472;52.170;20.884;2023-03-01T00:36:51;79.50;;;41.37;;
21274;SDS011;36472;52.170;20.884;2023-03-01T00:39:20;73.27;;;40.93;;
21274;SDS011;36472;52.170;20.884;2023-03-01T00:41:49;76.13;;;39.50;;
21274;SDS011;36472;52.170;20.884;2023-03-01T00:44:17;69.43;;;40.57;;
21274;SDS011;36472;52.170;20.884;2023-03-01T00:46:47;71.87;;;40.90;;
21274;SDS011;36472;52.170;20.884;2023-03-01T00:49:17;77.53;;;41.27;;
21274;SDS011;36472;52.170;20.884;2023-03-01T00:51:46;74.63;;;40.33;;
21274;SDS011;36472;52.170;20.884;2023-03-01T00:54:15;74.10;;;40.87;;
21274;SDS011;36472;52.170;20.884;2023-03-01T00:56:44;71.37;;;40.57;;
21274;SDS011;36472;52.170;20.884;2023-03-01T00:59:13;77.90;;;41.63;;
21274;SDS011;36472;52.170;20.884;2023-03-01T01:01:42;77.23;;;40.87;;
21274;SDS011;36472;52.170;20.884;2023-03-01T01:04:11;72.33;;;39.97;;
21274;SDS011;36472;52.170;20.884;2023-03-01T01:06:43;74.00;;;40.03;;
21274;SDS011;36472;52.170;20.884;2023-03-01T01:09:15;72.17;;;39.03;;
21274;SDS011;36472;52.170;20.884;2023-03-01T01:11:46;75.23;;;40.67;;
21274;SDS011;36472;52.170;20.884;2023-03-01T01:14:18;69.83;;;39.03;;
21274;SDS011;36472;52.170;20.884;2023-03-01T01:16:48;68.37;;;38.17;;
21274;SDS011;36472;52.170;20.884;2023-03-01T01:19:18;66.20;;;37.27;;
21274;SDS011;36472;52.170;20.884;2023-03-01T01:21:49;63.33;;;37.03;;
21274;SDS011;36472;52.170;20.884;2023-03-01T01:24:18;67.03;;;37.27;;
21274;SDS011;36472;52.170;20.884;2023-03-01T01:26:47;70.77;;;38.50;;
21274;SDS011;36472;52.170;20.884;2023-03-01T01:29:17;68.57;;;37.07;;
21274;SDS011;36472;52.170;20.884;2023-03-01T01:31:46;63.40;;;36.00;;
21274;SDS011;36472;52.170;20.884;2023-03-01T01:34:16;73.20;;;39.10;;
21274;SDS011;36472;52.170;20.884;2023-03-01T01:36:50;62.17;;;35.80;;
21274;SDS011;36472;52.170;20.884;2023-03-01T01:39:21;62.00;;;35.63;;
21274;SDS011;36472;52.170;20.884;2023-03-01T01:41:51;68.30;;;36.87;;
21274;SDS011;36472;52.170;20.884;2023-03-01T01:44:20;62.37;;;36.77;;
21274;SDS011;36472;52.170;20.884;2023-03-01T01:46:53;65.67;;;36.53;;
21274;SDS011;36472;52.170;20.884;2023-03-01T01:49:27;64.90;;;35.03;;
21274;SDS011;36472;52.170;20.884;2023-03-01T01:52:08;67.37;;;36.17;;
21274;SDS011;36472;52.170;20.884;2023-03-01T01:54:42;66.20;;;35.00;;
21274;SDS011;36472;52.170;20.884;2023-03-01T01:57:19;64.87;;;35.77;;
21274;SDS011;36472;52.170;20.884;2023-03-01T01:59:54;61.43;;;35.83;;
21274;SDS011;36472;52.170;20.884;2023-03-01T02:02:39;67.47;;;37.70;;
21274;SDS011;36472;52.170;20.884;2023-03-01T02:05:11;67.97;;;37.60;;
21274;SDS011;36472;52.170;20.884;2023-03-01T02:07:47;70.77;;;36.23;;
21274;SDS011;36472;52.170;20.884;2023-03-01T02:10:19;64.27;;;36.87;;
21274;SDS011;36472;52.170;20.884;2023-03-01T02:12:49;68.17;;;36.50;;
21274;SDS011;36472;52.170;20.884;2023-03-01T02:15:20;65.23;;;36.80;;
21274;SDS011;36472;52.170;20.884;2023-03-01T02:17:49;62.77;;;36.13;;
21274;SDS011;36472;52.170;20.884;2023-03-01T02:20:21;68.30;;;36.03;;
21274;SDS011;36472;52.170;20.884;2023-03-01T02:23:02;69.73;;;35.00;;
21274;SDS011;36472;52.170;20.884;2023-03-01T02:25:36;69.40;;;35.80;;
21274;SDS011;36472;52.170;20.884;2023-03-01T02:28:24;71.90;;;37.73;;
21274;SDS011;36472;52.170;20.884;2023-03-01T02:30:57;69.03;;;36.73;;
21274;SDS011;36472;52.170;20.884;2023-03-01T02:33:46;68.03;;;36.97;;
21274;SDS011;36472;52.170;20.884;2023-03-01T02:36:17;65.33;;;36.87;;
21274;SDS011;36472;52.170;20.884;2023-03-01T02:38:52;70.27;;;36.57;;
21274;SDS011;36472;52.170;20.884;2023-03-01T02:41:26;65.63;;;36.00;;
21274;SDS011;36472;52.170;20.884;2023-03-01T02:44:01;70.60;;;37.40;;
21274;SDS011;36472;52.170;20.884;2023-03-01T02:46:31;66.27;;;35.47;;
21274;SDS011;36472;52.170;20.884;2023-03-01T02:49:00;65.80;;;37.03;;
21274;SDS011;36472;52.170;20.884;2023-03-01T02:51:42;68.23;;;37.57;;
21274;SDS011;36472;52.170;20.884;2023-03-01T02:54:24;73.67;;;40.07;;
21274;SDS011;36472;52.170;20.884;2023-03-01T02:57:01;75.77;;;38.93;;
21274;SDS011;36472;52.170;20.884;2023-03-01T02:59:33;69.20;;;39.80;;
21274;SDS011;36472;52.170;20.884;2023-03-01T03:02:17;65.67;;;36.03;;
21274;SDS011;36472;52.170;20.884;2023-03-01T03:05:25;69.60;;;38.63;;
21274;SDS011;36472;52.170;20.884;2023-03-01T03:07:57;68.73;;;38.83;;
21274;SDS011;36472;52.170;20.884;2023-03-01T03:10:33;72.10;;;37.70;;
21274;SDS011;36472;52.170;20.884;2023-03-01T03:13:07;71.73;;;38.03;;
21274;SDS011;36472;52.170;20.884;2023-03-01T03:15:40;65.20;;;36.97;;
21274;SDS011;36472;52.170;20.884;2023-03-01T03:18:12;70.47;;;37.70;;
21274;SDS011;36472;52.170;20.884;2023-03-01T03:20:44;74.60;;;37.47;;
21274;SDS011;36472;52.170;20.884;2023-03-01T03:23:14;68.13;;;36.97;;
21274;SDS011;36472;52.170;20.884;2023-03-01T03:25:43;74.63;;;38.80;;
21274;SDS011;36472;52.170;20.884;2023-03-01T03:28:12;72.27;;;36.67;;
21274;SDS011;36472;52.170;20.884;2023-03-01T03:30:44;70.77;;;37.33;;
21274;SDS011;36472;52.170;20.884;2023-03-01T03:33:13;67.40;;;36.13;;
21274;SDS011;36472;52.170;20.884;2023-03-01T03:35:43;75.40;;;39.70;;
21274;SDS011;36472;52.170;20.884;2023-03-01T03:38:16;69.97;;;38.87;;
21274;SDS011;36472;52.170;20.884;2023-03-01T03:40:49;70.23;;;39.50;;
21274;SDS011;36472;52.170;20.884;2023-03-01T03:43:29;72.33;;;38.07;;
21274;SDS011;36472;52.170;20.884;2023-03-01T03:46:03;73.77;;;39.63;;
21274;SDS011;36472;52.170;20.884;2023-03-01T03:48:33;66.93;;;37.10;;
21274;SDS011;36472;52.170;20.884;2023-03-01T03:51:04;73.27;;;40.53;;
21274;SDS011;36472;52.170;20.884;2023-03-01T03:53:33;69.77;;;35.50;;
21274;SDS011;36472;52.170;20.884;2023-03-01T03:56:03;66.53;;;34.23;;
21274;SDS011;36472;52.170;20.884;2023-03-01T03:58:32;67.17;;;34.30;;
21274;SDS011;36472;52.170;20.884;2023-03-01T04:01:03;66.77;;;35.53;;
21274;SDS011;36472;52.170;20.884;2023-03-01T04:03:33;63.97;;;35.37;;
21274;SDS011;36472;52.170;20.884;2023-03-01T04:06:03;60.00;;;33.87;;
21274;SDS011;36472;52.170;20.884;2023-03-01T04:08:32;69.73;;;36.80;;
21274;SDS011;36472;52.170;20.884;2023-03-01T04:11:02;69.10;;;36.20;;
21274;SDS011;36472;52.170;20.884;2023-03-01T04:13:47;69.30;;;36.87;;
21274;SDS011;36472;52.170;20.884;2023-03-01T04:16:19;71.23;;;37.13;;
21274;SDS011;36472;52.170;20.884;2023-03-01T04:18:48;63.70;;;35.53;;
21274;SDS011;36472;52.170;20.884;2023-03-01T04:21:17;69.60;;;36.57;;
21274;SDS011;36472;52.170;20.884;2023-03-01T04:23:47;67.37;;;36.63;;
21274;SDS011;36472;52.170;20.884;2023-03-01T04:26:20;72.77;;;39.97;;
21274;SDS011;36472;52.170;20.884;2023-03-01T04:28:48;72.37;;;39.70;;
21274;SDS011;36472;52.170;20.884;2023-03-01T04:31:19;74.97;;;41.00;;
21274;SDS011;36472;52.170;20.884;2023-03-01T04:33:50;70.37;;;39.40;;
21274;SDS011;36472;52.170;20.884;2023-03-01T04:36:22;76.23;;;39.00;;
21274;SDS011;36472;52.170;20.884;2023-03-01T04:38:53;69.40;;;38.20;;
21274;SDS011;36472;52.170;20.884;2023-03-01T04:41:24;74.63;;;40.07;;
21274;SDS011;36472;52.170;20.884;2023-03-01T04:43:53;73.70;;;39.33;;
21274;SDS011;36472;52.170;20.884;2023-03-01T04:46:24;77.13;;;39.20;;
21274;SDS011;36472;52.170;20.884;2023-03-01T04:48:53;72.27;;;38.83;;
21274;SDS011;36472;52.170;20.884;2023-03-01T04:51:22;75.10;;;38.67;;
21274;SDS011;36472;52.170;20.884;2023-03-01T04:53:51;69.70;;;39.67;;
21274;SDS011;36472;52.170;20.884;2023-03-01T04:56:20;75.60;;;38.77;;
21274;SDS011;36472;52.170;20.884;2023-03-01T04:58:49;66.67;;;36.00;;
21274;SDS011;36472;52.170;20.884;2023-03-01T05:01:22;72.13;;;38.97;;
21274;SDS011;36472;52.170;20.884;2023-03-01T05:03:52;66.30;;;34.73;;
21274;SDS011;36472;52.170;20.884;2023-03-01T05:06:21;61.30;;;32.87;;
21274;SDS011;36472;52.170;20.884;2023-03-01T05:08:50;60.10;;;32.43;;
21274;SDS011;36472;52.170;20.884;2023-03-01T05:11:19;60.00;;;32.70;;
21274;SDS011;36472;52.170;20.884;2023-03-01T05:13:48;63.03;;;34.17;;
21274;SDS011;36472;52.170;20.884;2023-03-01T05:16:23;59.63;;;32.80;;
21274;SDS011;36472;52.170;20.884;2023-03-01T05:18:52;54.33;;;31.37;;
21274;SDS011;36472;52.170;20.884;2023-03-01T05:21:22;60.43;;;32.93;;
21274;SDS011;36472;52.170;20.884;2023-03-01T05:23:51;57.53;;;32.63;;
21274;SDS011;36472;52.170;20.884;2023-03-01T05:26:21;53.37;;;29.43;;
21274;SDS011;36472;52.170;20.884;2023-03-01T05:28:55;57.97;;;30.83;;
21274;SDS011;36472;52.170;20.884;2023-03-01T05:31:28;57.43;;;30.77;;
21274;SDS011;36472;52.170;20.884;2023-03-01T05:33:57;57.73;;;29.93;;
21274;SDS011;36472;52.170;20.884;2023-03-01T05:36:26;55.43;;;30.57;;
21274;SDS011;36472;52.170;20.884;2023-03-01T05:38:56;56.90;;;30.93;;
21274;SDS011;36472;52.170;20.884;2023-03-01T05:41:25;54.10;;;31.10;;
21274;SDS011;36472;52.170;20.884;2023-03-01T05:43:54;57.17;;;32.53;;
21274;SDS011;36472;52.170;20.884;2023-03-01T05:46:23;56.07;;;30.60;;
21274;SDS011;36472;52.170;20.884;2023-03-01T05:48:53;58.90;;;32.17;;
21274;SDS011;36472;52.170;20.884;2023-03-01T05:51:23;61.23;;;33.83;;
21274;SDS011;36472;52.170;20.884;2023-03-01T05:53:52;69.37;;;35.53;;
21274;SDS011;36472;52.170;20.884;2023-03-01T05:56:21;61.47;;;34.87;;
21274;SDS011;36472;52.170;20.884;2023-03-01T05:58:50;63.23;;;34.83;;
21274;SDS011;36472;52.170;20.884;2023-03-01T06:01:19;61.00;;;33.03;;
21274;SDS011;36472;52.170;20.884;2023-03-01T06:03:48;59.87;;;32.33;;
21274;SDS011;36472;52.170;20.884;2023-03-01T06:06:19;56.63;;;31.93;;
21274;SDS011;36472;52.170;20.884;2023-03-01T06:08:47;58.30;;;32.17;;
21274;SDS011;36472;52.170;20.884;2023-03-01T06:11:17;57.83;;;32.07;;
21274;SDS011;36472;52.170;20.884;2023-03-01T06:13:46;61.37;;;33.00;;
21274;SDS011;36472;52.170;20.884;2023-03-01T06:16:15;56.60;;;32.77;;
21274;SDS011;36472;52.170;20.884;2023-03-01T06:18:44;57.43;;;32.70;;
21274;SDS011;36472;52.170;20.884;2023-03-01T06:21:13;55.93;;;32.10;;
21274;SDS011;36472;52.170;20.884;2023-03-01T06:23:43;57.23;;;32.77;;
21274;SDS011;36472;52.170;20.884;2023-03-01T06:26:12;55.33;;;31.37;;
21274;SDS011;36472;52.170;20.884;2023-03-01T06:28:41;56.13;;;30.60;;
21274;SDS011;36472;52.170;20.884;2023-03-01T06:31:13;56.87;;;31.43;;
21274;SDS011;36472;52.170;20.884;2023-03-01T06:33:42;56.63;;;30.53;;
21274;SDS011;36472;52.170;20.884;2023-03-01T06:36:12;56.72;;;32.15;;
21274;SDS011;36472;52.170;20.884;2023-03-01T06:38:41;56.63;;;32.03;;
21274;SDS011;36472;52.170;20.884;2023-03-01T06:41:11;62.42;;;34.67;;
21274;SDS011;36472;52.170;20.884;2023-03-01T06:43:40;57.85;;;33.03;;
21274;SDS011;36472;52.170;20.884;2023-03-01T06:46:09;59.93;;;33.27;;
21274;SDS011;36472;52.170;20.884;2023-03-01T06:48:38;57.17;;;32.50;;
21274;SDS011;36472;52.170;20.884;2023-03-01T06:51:07;55.77;;;31.87;;
21274;SDS011;36472;52.170;20.884;2023-03-01T06:53:36;55.00;;;31.27;;
21274;SDS011;36472;52.170;20.884;2023-03-01T06:56:06;55.77;;;31.00;;
21274;SDS011;36472;52.170;20.884;2023-03-01T06:58:36;58.47;;;32.13;;
21274;SDS011;36472;52.170;20.884;2023-03-01T07:01:05;55.30;;;31.17;;
21274;SDS011;36472;52.170;20.884;2023-03-01T07:03:35;59.07;;;31.97;;
21274;SDS011;36472;52.170;20.884;2023-03-01T07:06:04;56.65;;;31.55;;
21274;SDS011;36472;52.170;20.884;2023-03-01T07:08:33;58.35;;;33.60;;
21274;SDS011;36472;52.170;20.884;2023-03-01T07:11:02;56.95;;;32.65;;
21274;SDS011;36472;52.170;20.884;2023-03-01T07:13:32;59.00;;;33.97;;
21274;SDS011;36472;52.170;20.884;2023-03-01T07:16:03;58.75;;;33.80;;
21274;SDS011;36472;52.170;20.884;2023-03-01T07:18:32;60.92;;;33.75;;
21274;SDS011;36472;52.170;20.884;2023-03-01T07:21:05;60.90;;;34.90;;
21274;SDS011;36472;52.170;20.884;2023-03-01T07:23:34;54.65;;;32.58;;
21274;SDS011;36472;52.170;20.884;2023-03-01T07:26:04;58.38;;;33.17;;
21274;SDS011;36472;52.170;20.884;2023-03-01T07:28:33;56.75;;;32.97;;
21274;SDS011;36472;52.170;20.884;2023-03-01T07:31:07;54.40;;;32.17;;
21274;SDS011;36472;52.170;20.884;2023-03-01T07:33:35;52.72;;;30.15;;
21274;SDS011;36472;52.170;20.884;2023-03-01T07:36:05;57.03;;;30.20;;
21274;SDS011;36472;52.170;20.884;2023-03-01T07:38:34;51.20;;;28.73;;
21274;SDS011;36472;52.170;20.884;2023-03-01T07:41:04;49.25;;;28.23;;
21274;SDS011;36472;52.170;20.884;2023-03-01T07:43:33;52.03;;;28.75;;
21274;SDS011;36472;52.170;20.884;2023-03-01T07:46:03;60.20;;;29.65;;
21274;SDS011;36472;52.170;20.884;2023-03-01T07:48:34;52.55;;;29.10;;
21274;SDS011;36472;52.170;20.884;2023-03-01T07:51:04;52.60;;;29.55;;
21274;SDS011;36472;52.170;20.884;2023-03-01T07:53:34;50.45;;;29.10;;
21274;SDS011;36472;52.170;20.884;2023-03-01T07:56:04;47.13;;;28.50;;
21274;SDS011;36472;52.170;20.884;2023-03-01T07:58:35;47.47;;;28.80;;
21274;SDS011;36472;52.170;20.884;2023-03-01T08:01:07;54.20;;;28.85;;
21274;SDS011;36472;52.170;20.884;2023-03-01T08:03:41;51.92;;;29.92;;
21274;SDS011;36472;52.170;20.884;2023-03-01T08:06:11;49.90;;;29.48;;
21274;SDS011;36472;52.170;20.884;2023-03-01T08:08:42;49.47;;;28.27;;
21274;SDS011;36472;52.170;20.884;2023-03-01T08:11:13;45.30;;;28.60;;
21274;SDS011;36472;52.170;20.884;2023-03-01T08:13:43;48.10;;;27.30;;
21274;SDS011;36472;52.170;20.884;2023-03-01T08:16:18;51.55;;;27.63;;
21274;SDS011;36472;52.170;20.884;2023-03-01T08:18:48;44.25;;;26.00;;
21274;SDS011;36472;52.170;20.884;2023-03-01T08:21:18;43.33;;;26.02;;
21274;SDS011;36472;52.170;20.884;2023-03-01T08:23:47;45.75;;;26.75;;
21274;SDS011;36472;52.170;20.884;2023-03-01T08:26:16;47.97;;;26.58;;
21274;SDS011;36472;52.170;20.884;2023-03-01T08:28:48;41.53;;;25.45;;
21274;SDS011;36472;52.170;20.884;2023-03-01T08:31:18;40.97;;;23.98;;
21274;SDS011;36472;52.170;20.884;2023-03-01T08:33:51;37.25;;;24.55;;
21274;SDS011;36472;52.170;20.884;2023-03-01T08:36:25;38.90;;;24.83;;
21274;SDS011;36472;52.170;20.884;2023-03-01T08:38:57;37.58;;;24.50;;
21274;SDS011;36472;52.170;20.884;2023-03-01T08:41:27;43.17;;;25.02;;
21274;SDS011;36472;52.170;20.884;2023-03-01T08:43:56;42.85;;;27.05;;
21274;SDS011;36472;52.170;20.884;2023-03-01T08:46:27;38.90;;;24.67;;
21274;SDS011;36472;52.170;20.884;2023-03-01T08:48:59;41.65;;;24.55;;
21274;SDS011;36472;52.170;20.884;2023-03-01T08:51:31;43.05;;;24.90;;
21274;SDS011;36472;52.170;20.884;2023-03-01T08:54:03;43.08;;;25.58;;
21274;SDS011;36472;52.170;20.884;2023-03-01T08:56:33;39.20;;;23.58;;
21274;SDS011;36472;52.170;20.884;2023-03-01T08:59:02;38.42;;;22.75;;
21274;SDS011;36472;52.170;20.884;2023-03-01T09:01:32;37.53;;;21.98;;
21274;SDS011;36472;52.170;20.884;2023-03-01T09:04:02;37.63;;;23.05;;
21274;SDS011;36472;52.170;20.884;2023-03-01T09:06:32;35.95;;;23.33;;
21274;SDS011;36472;52.170;20.884;2023-03-01T09:09:02;36.45;;;22.67;;
21274;SDS011;36472;52.170;20.884;2023-03-01T09:11:33;37.72;;;22.70;;
21274;SDS011;36472;52.170;20.884;2023-03-01T09:14:04;32.00;;;20.38;;
21274;SDS011;36472;52.170;20.884;2023-03-01T09:16:34;31.48;;;19.23;;
21274;SDS011;36472;52.170;20.884;2023-03-01T09:19:04;30.13;;;17.13;;
21274;SDS011;36472;52.170;20.884;2023-03-01T09:21:33;29.70;;;18.75;;
21274;SDS011;36472;52.170;20.884;2023-03-01T09:24:07;28.67;;;18.35;;
21274;SDS011;36472;52.170;20.884;2023-03-01T09:26:42;28.52;;;17.27;;
21274;SDS011;36472;52.170;20.884;2023-03-01T09:29:15;30.13;;;17.23;;
21274;SDS011;36472;52.170;20.884;2023-03-01T09:31:45;32.78;;;19.75;;
21274;SDS011;36472;52.170;20.884;2023-03-01T09:34:15;28.05;;;17.98;;
21274;SDS011;36472;52.170;20.884;2023-03-01T09:36:50;28.45;;;17.70;;
21274;SDS011;36472;52.170;20.884;2023-03-01T09:39:19;28.17;;;17.40;;
21274;SDS011;36472;52.170;20.884;2023-03-01T09:41:50;24.63;;;16.25;;
21274;SDS011;36472;52.170;20.884;2023-03-01T09:44:30;25.52;;;16.10;;
21274;SDS011;36472;52.170;20.884;2023-03-01T09:47:09;30.63;;;17.70;;
21274;SDS011;36472;52.170;20.884;2023-03-01T09:49:50;24.73;;;15.70;;
21274;SDS011;36472;52.170;20.884;2023-03-01T09:52:29;26.13;;;15.40;;
21274;SDS011;36472;52.170;20.884;2023-03-01T09:55:09;23.88;;;14.05;;
21274;SDS011;36472;52.170;20.884;2023-03-01T09:57:44;23.20;;;14.35;;
21274;SDS011;36472;52.170;20.884;2023-03-01T10:00:24;28.33;;;16.70;;
21274;SDS011;36472;52.170;20.884;2023-03-01T10:03:08;30.75;;;18.50;;
21274;SDS011;36472;52.170;20.884;2023-03-01T10:05:49;28.65;;;17.63;;
21274;SDS011;36472;52.170;20.884;2023-03-01T10:08:34;28.45;;;17.73;;
21274;SDS011;36472;52.170;20.884;2023-03-01T10:11:17;29.85;;;18.00;;
21274;SDS011;36472;52.170;20.884;2023-03-01T10:13:54;30.45;;;18.52;;
21274;SDS011;36472;52.170;20.884;2023-03-01T10:16:34;27.55;;;17.63;;
21274;SDS011;36472;52.170;20.884;2023-03-01T10:19:17;26.40;;;18.15;;
21274;SDS011;36472;52.170;20.884;2023-03-01T10:21:57;26.35;;;18.05;;
21274;SDS011;36472;52.170;20.884;2023-03-01T10:24:34;26.45;;;18.65;;
21274;SDS011;36472;52.170;20.884;2023-03-01T10:27:05;26.85;;;17.38;;
21274;SDS011;36472;52.170;20.884;2023-03-01T10:29:46;29.08;;;18.10;;
21274;SDS011;36472;52.170;20.884;2023-03-01T10:32:23;24.50;;;16.90;;
21274;SDS011;36472;52.170;20.884;2023-03-01T10:34:53;21.50;;;15.02;;
21274;SDS011;36472;52.170;20.884;2023-03-01T10:37:23;27.55;;;16.42;;
21274;SDS011;36472;52.170;20.884;2023-03-01T10:39:55;19.52;;;14.68;;
21274;SDS011;36472;52.170;20.884;2023-03-01T10:42:27;22.98;;;15.07;;
21274;SDS011;36472;52.170;20.884;2023-03-01T10:45:14;23.83;;;14.77;;
21274;SDS011;36472;52.170;20.884;2023-03-01T10:48:02;24.77;;;15.65;;
21274;SDS011;36472;52.170;20.884;2023-03-01T10:50:38;21.45;;;15.20;;
21274;SDS011;36472;52.170;20.884;2023-03-01T10:53:24;23.20;;;15.68;;
21274;SDS011;36472;52.170;20.884;2023-03-01T10:55:58;21.42;;;13.52;;
21274;SDS011;36472;52.170;20.884;2023-03-01T10:58:31;24.48;;;16.27;;
21274;SDS011;36472;52.170;20.884;2023-03-01T11:01:03;26.27;;;16.50;;
21274;SDS011;36472;52.170;20.884;2023-03-01T11:03:34;19.92;;;15.35;;
21274;SDS011;36472;52.170;20.884;2023-03-01T11:06:12;21.60;;;15.75;;
21274;SDS011;36472;52.170;20.884;2023-03-01T11:08:51;19.77;;;14.45;;
21274;SDS011;36472;52.170;20.884;2023-03-01T11:11:22;21.58;;;14.65;;
21274;SDS011;36472;52.170;20.884;2023-03-01T11:14:00;24.38;;;16.45;;
21274;SDS011;36472;52.170;20.884;2023-03-01T11:16:58;20.00;;;14.07;;
21274;SDS011;36472;52.170;20.884;2023-03-01T11:19:30;19.27;;;13.77;;
21274;SDS011;36472;52.170;20.884;2023-03-01T11:22:02;18.73;;;12.82;;
21274;SDS011;36472;52.170;20.884;2023-03-01T11:24:42;18.27;;;12.82;;
21274;SDS011;36472;52.170;20.884;2023-03-01T11:27:34;19.45;;;12.80;;
21274;SDS011;36472;52.170;20.884;2023-03-01T11:30:13;22.30;;;13.63;;
21274;SDS011;36472;52.170;20.884;2023-03-01T11:32:50;19.73;;;13.80;;
21274;SDS011;36472;52.170;20.884;2023-03-01T11:35:33;19.95;;;13.20;;
21274;SDS011;36472;52.170;20.884;2023-03-01T11:38:15;19.05;;;14.15;;
21274;SDS011;36472;52.170;20.884;2023-03-01T11:40:52;17.77;;;14.10;;
21274;SDS011;36472;52.170;20.884;2023-03-01T11:43:33;21.05;;;14.05;;
21274;SDS011;36472;52.170;20.884;2023-03-01T11:46:26;21.13;;;14.93;;
21274;SDS011;36472;52.170;20.884;2023-03-01T11:49:19;20.65;;;14.88;;
21274;SDS011;36472;52.170;20.884;2023-03-01T11:52:34;22.92;;;14.50;;
21274;SDS011;36472;52.170;20.884;2023-03-01T11:55:29;20.77;;;14.57;;
21274;SDS011;36472;52.170;20.884;2023-03-01T12:01:32;19.27;;;14.20;;
21274;SDS011;36472;52.170;20.884;2023-03-01T12:04:27;18.55;;;14.02;;
21274;SDS011;36472;52.170;20.884;2023-03-01T12:07:22;20.23;;;13.85;;
21274;SDS011;36472;52.170;20.884;2023-03-01T12:10:16;19.95;;;13.77;;
21274;SDS011;36472;52.170;20.884;2023-03-01T12:13:01;19.52;;;15.45;;
21274;SDS011;36472;52.170;20.884;2023-03-01T12:15:55;17.35;;;12.98;;
21274;SDS011;36472;52.170;20.884;2023-03-01T12:19:12;19.83;;;14.30;;
21274;SDS011;36472;52.170;20.884;2023-03-01T12:22:09;19.08;;;13.70;;
21274;SDS011;36472;52.170;20.884;2023-03-01T12:24:59;23.98;;;14.48;;
21274;SDS011;36472;52.170;20.884;2023-03-01T12:30:57;23.13;;;15.57;;
21274;SDS011;36472;52.170;20.884;2023-03-01T12:33:45;20.52;;;13.80;;
21274;SDS011;36472;52.170;20.884;2023-03-01T12:39:42;18.17;;;13.38;;
21274;SDS011;36472;52.170;20.884;2023-03-01T12:42:27;21.33;;;14.38;;
21274;SDS011;36472;52.170;20.884;2023-03-01T12:45:16;21.10;;;13.98;;
21274;SDS011;36472;52.170;20.884;2023-03-01T12:48:21;17.90;;;12.93;;
21274;SDS011;36472;52.170;20.884;2023-03-01T12:51:03;17.05;;;12.23;;
21274;SDS011;36472;52.170;20.884;2023-03-01T12:53:39;20.00;;;13.60;;
21274;SDS011;36472;52.170;20.884;2023-03-01T12:56:13;19.35;;;12.43;;
21274;SDS011;36472;52.170;20.884;2023-03-01T12:58:51;19.38;;;13.43;;
21274;SDS011;36472;52.170;20.884;2023-03-01T13:01:35;21.60;;;13.48;;
21274;SDS011;36472;52.170;20.884;2023-03-01T13:04:25;23.95;;;13.65;;
21274;SDS011;36472;52.170;20.884;2023-03-01T13:07:11;19.83;;;14.02;;
21274;SDS011;36472;52.170;20.884;2023-03-01T13:09:55;17.77;;;12.65;;
21274;SDS011;36472;52.170;20.884;2023-03-01T13:12:46;21.02;;;13.50;;
21274;SDS011;36472;52.170;20.884;2023-03-01T13:15:25;21.30;;;14.43;;
21274;SDS011;36472;52.170;20.884;2023-03-01T13:17:56;19.92;;;13.40;;
21274;SDS011;36472;52.170;20.884;2023-03-01T13:20:31;22.00;;;14.27;;
21274;SDS011;36472;52.170;20.884;2023-03-01T13:23:22;21.55;;;14.32;;
21274;SDS011;36472;52.170;20.884;2023-03-01T13:26:08;25.58;;;15.30;;
21274;SDS011;36472;52.170;20.884;2023-03-01T13:34:47;23.50;;;14.93;;
21274;SDS011;36472;52.170;20.884;2023-03-01T13:37:30;24.25;;;14.27;;
21274;SDS011;36472;52.170;20.884;2023-03-01T13:43:28;22.90;;;14.50;;
21274;SDS011;36472;52.170;20.884;2023-03-01T13:46:00;23.20;;;14.95;;
21274;SDS011;36472;52.170;20.884;2023-03-01T13:48:38;25.70;;;16.00;;
21274;SDS011;36472;52.170;20.884;2023-03-01T13:51:08;23.60;;;15.20;;
21274;SDS011;36472;52.170;20.884;2023-03-01T13:53:42;21.48;;;14.05;;
21274;SDS011;36472;52.170;20.884;2023-03-01T13:56:16;21.83;;;15.02;;
21274;SDS011;36472;52.170;20.884;2023-03-01T13:58:50;24.75;;;15.75;;
21274;SDS011;36472;52.170;20.884;2023-03-01T14:01:24;23.25;;;15.30;;
21274;SDS011;36472;52.170;20.884;2023-03-01T14:03:57;24.13;;;13.95;;
21274;SDS011;36472;52.170;20.884;2023-03-01T14:06:28;23.48;;;14.52;;
21274;SDS011;36472;52.170;20.884;2023-03-01T14:09:03;25.63;;;16.98;;
21274;SDS011;36472;52.170;20.884;2023-03-01T14:14:52;22.80;;;14.52;;
21274;SDS011;36472;52.170;20.884;2023-03-01T14:20:28;21.75;;;14.63;;
21274;SDS011;36472;52.170;20.884;2023-03-01T14:23:02;22.73;;;15.65;;
21274;SDS011;36472;52.170;20.884;2023-03-01T14:25:47;26.60;;;15.68;;
21274;SDS011;36472;52.170;20.884;2023-03-01T14:28:19;25.42;;;16.13;;
21274;SDS011;36472;52.170;20.884;2023-03-01T14:30:53;25.13;;;15.20;;
21274;SDS011;36472;52.170;20.884;2023-03-01T14:33:25;23.70;;;16.00;;
21274;SDS011;36472;52.170;20.884;2023-03-01T14:35:58;27.38;;;16.88;;
21274;SDS011;36472;52.170;20.884;2023-03-01T14:38:33;25.75;;;15.68;;
21274;SDS011;36472;52.170;20.884;2023-03-01T14:41:07;27.15;;;16.00;;
21274;SDS011;36472;52.170;20.884;2023-03-01T14:43:38;24.35;;;15.48;;
21274;SDS011;36472;52.170;20.884;2023-03-01T14:46:18;25.73;;;15.25;;
21274;SDS011;36472;52.170;20.884;2023-03-01T14:48:50;24.30;;;15.75;;
21274;SDS011;36472;52.170;20.884;2023-03-01T14:51:21;20.63;;;14.50;;
21274;SDS011;36472;52.170;20.884;2023-03-01T14:53:51;24.63;;;14.52;;
21274;SDS011;36472;52.170;20.884;2023-03-01T14:56:22;22.23;;;15.07;;
21274;SDS011;36472;52.170;20.884;2023-03-01T14:58:51;24.77;;;14.98;;
21274;SDS011;36472;52.170;20.884;2023-03-01T15:01:21;23.20;;;15.20;;
21274;SDS011;36472;52.170;20.884;2023-03-01T15:03:52;26.33;;;15.45;;
21274;SDS011;36472;52.170;20.884;2023-03-01T15:06:22;23.25;;;14.23;;
21274;SDS011;36472;52.170;20.884;2023-03-01T15:08:52;24.17;;;15.27;;
21274;SDS011;36472;52.170;20.884;2023-03-01T15:11:27;25.77;;;15.50;;
21274;SDS011;36472;52.170;20.884;2023-03-01T15:13:58;21.67;;;14.30;;